createdAt,value
2018-12-07T00:01:53.181Z,42.90
2018-12-07T00:04:25.938Z,46.02
2018-12-07T00:06:58.518Z,43.68
2018-12-07T00:09:31.163Z,44.88
2018-12-07T00:12:03.977Z,42.70
2018-12-07T00:14:36.594Z,42.65
2018-12-07T00:17:09.498Z,46.48
2018-12-07T00:19:47.954Z,42.50
2018-12-07T00:22:17.158Z,41.65
2018-12-07T00:24:49.786Z,37.38
2018-12-07T00:27:22.389Z,45.88
2018-12-07T00:29:55.003Z,39.18
2018-12-07T00:32:27.929Z,44.77
2018-12-07T00:35:02.676Z,46.18
2018-12-07T00:37:35.304Z,39.55
2018-12-07T00:40:08.417Z,38.13
2018-12-07T00:42:41.022Z,31.40
2018-12-07T00:45:13.698Z,25.12
2018-12-07T00:47:46.295Z,25.15
2018-12-07T00:50:19.232Z,29.32
2018-12-07T00:52:52.652Z,25.43
2018-12-07T00:55:38.486Z,29.82
2018-12-07T00:58:15.041Z,27.58
2018-12-07T01:00:49.146Z,35.17
2018-12-07T01:03:26.102Z,39.67
2018-12-07T01:06:00.622Z,42.33
2018-12-07T01:08:34.802Z,50.08
2018-12-07T01:11:10.679Z,42.70
2018-12-07T01:13:49.080Z,27.55
2018-12-07T01:16:26.054Z,28.60
2018-12-07T01:19:03.548Z,25.37
2018-12-07T01:21:39.585Z,33.92
2018-12-07T01:24:16.244Z,33.35
2018-12-07T01:26:50.899Z,43.33
2018-12-07T01:29:26.001Z,37.48
2018-12-07T01:32:04.166Z,40.05
2018-12-07T01:34:40.317Z,37.80
2018-12-07T01:37:16.560Z,41.70
2018-12-07T01:40:01.875Z,36.38
2018-12-07T01:42:38.967Z,33.63
2018-12-07T01:45:16.297Z,33.35
2018-12-07T01:47:55.537Z,31.15
2018-12-07T01:50:34.416Z,27.75
2018-12-07T01:53:13.165Z,22.65
2018-12-07T01:55:49.438Z,26.02
2018-12-07T01:58:24.625Z,23.52
2018-12-07T02:01:02.962Z,28.05
2018-12-07T02:03:40.016Z,28.45
2018-12-07T02:06:15.477Z,27.35
2018-12-07T02:08:49.838Z,23.80
2018-12-07T02:11:23.409Z,26.95
2018-12-07T02:13:59.329Z,28.23
2018-12-07T02:16:38.004Z,31.42
2018-12-07T02:19:11.865Z,29.98
2018-12-07T02:21:52.291Z,32.33
2018-12-07T02:24:29.860Z,27.65
2018-12-07T02:27:02.958Z,28.45
2018-12-07T02:29:41.454Z,36.48
2018-12-07T02:32:18.158Z,43.45
2018-12-07T02:34:54.465Z,34.55
2018-12-07T02:37:27.991Z,33.63
2018-12-07T02:40:03.632Z,38.02
2018-12-07T02:42:39.639Z,38.92
2018-12-07T02:45:15.777Z,35.83
2018-12-07T02:47:53.701Z,37.67
2018-12-07T02:50:30.505Z,41.55
2018-12-07T02:53:08.980Z,43.23
2018-12-07T02:55:47.750Z,39.58
2018-12-07T02:58:21.695Z,46.60
2018-12-07T03:00:56.529Z,37.45
2018-12-07T03:03:33.326Z,39.05
2018-12-07T03:06:07.304Z,37.38
2018-12-07T03:08:43.043Z,38.35
2018-12-07T03:11:18.465Z,35.58
2018-12-07T03:13:53.247Z,35.43
2018-12-07T03:16:26.454Z,31.00
2018-12-07T03:18:59.044Z,39.55
2018-12-07T03:21:31.660Z,33.48
2018-12-07T03:24:04.421Z,34.38
2018-12-07T03:26:38.497Z,28.42
2018-12-07T03:29:13.129Z,22.25
2018-12-07T03:31:47.077Z,23.22
2018-12-07T03:34:19.677Z,20.25
2018-12-07T03:36:53.496Z,19.65
2018-12-07T03:39:27.372Z,19.20
2018-12-07T03:42:00.984Z,20.05
2018-12-07T03:44:35.736Z,17.05
2018-12-07T03:47:10.687Z,16.50
2018-12-07T03:52:53.667Z,17.20
2018-12-07T03:55:26.335Z,15.65
2018-12-07T03:58:00.271Z,15.78
2018-12-07T04:00:39.937Z,15.75
2018-12-07T04:10:08.561Z,15.08
2018-12-07T04:12:44.738Z,19.12
2018-12-07T04:15:17.997Z,15.90
2018-12-07T04:17:56.262Z,18.25
2018-12-07T04:20:33.998Z,17.98
2018-12-07T04:23:10.569Z,17.62
2018-12-07T04:25:44.824Z,21.80
2018-12-07T04:28:20.991Z,24.50
2018-12-07T04:30:58.309Z,23.18
2018-12-07T04:33:31.090Z,22.75
2018-12-07T04:36:07.453Z,24.55
2018-12-07T04:38:42.377Z,24.43
2018-12-07T04:41:14.997Z,25.45
2018-12-07T04:43:50.763Z,25.72
2018-12-07T04:46:28.126Z,28.42
2018-12-07T04:49:01.564Z,26.20
2018-12-07T04:51:38.431Z,27.15
2018-12-07T04:54:17.412Z,21.23
2018-12-07T04:56:50.913Z,22.77
2018-12-07T04:59:23.572Z,24.30
2018-12-07T05:01:58.284Z,21.05
2018-12-07T05:04:32.229Z,24.02
2018-12-07T05:07:04.756Z,20.75
2018-12-07T05:09:38.959Z,21.70
2018-12-07T05:12:11.545Z,24.63
2018-12-07T05:14:45.606Z,22.10
2018-12-07T05:17:18.661Z,20.40
2018-12-07T05:19:52.725Z,26.30
2018-12-07T05:22:25.361Z,19.02
2018-12-07T05:25:00.255Z,18.23
2018-12-07T05:27:35.188Z,19.52
2018-12-07T05:30:08.814Z,20.88
2018-12-07T05:32:41.767Z,16.40
2018-12-07T05:35:16.910Z,16.42
2018-12-07T05:37:50.610Z,14.83
2018-12-07T05:40:24.519Z,17.75
2018-12-07T05:42:58.093Z,19.42
2018-12-07T05:45:31.398Z,16.60
2018-12-07T05:48:04.683Z,18.23
2018-12-07T05:50:40.786Z,15.53
2018-12-07T05:53:16.699Z,16.57
2018-12-07T05:55:49.272Z,14.03
2018-12-07T05:58:23.377Z,19.12
2018-12-07T10:36:17.013Z,8.90
2018-12-07T10:38:49.592Z,9.13
2018-12-07T10:41:22.222Z,8.68
2018-12-07T10:43:54.807Z,9.10
2018-12-07T10:46:27.501Z,11.50
2018-12-07T10:49:00.117Z,9.75
2018-12-07T10:51:32.767Z,9.18
2018-12-07T10:54:05.317Z,7.97
2018-12-07T10:56:37.937Z,9.28
2018-12-07T10:59:10.627Z,9.88
2018-12-07T11:02:48.458Z,8.83
2018-12-07T11:05:26.714Z,11.08
2018-12-07T11:08:05.128Z,9.93
2018-12-07T11:10:44.110Z,9.65
2018-12-07T11:13:23.353Z,10.55
2018-12-07T11:16:01.767Z,9.20
2018-12-07T11:18:41.271Z,11.05
2018-12-07T11:21:20.085Z,10.98
2018-12-07T11:24:58.915Z,11.30
2018-12-07T11:27:37.211Z,11.70
2018-12-07T11:30:15.706Z,11.03
2018-12-07T11:32:54.629Z,7.60
2018-12-07T11:35:30.124Z,7.72
2018-12-07T11:38:02.789Z,7.35
2018-12-07T11:40:35.399Z,7.62
2018-12-07T11:43:09.967Z,7.70
2018-12-07T11:45:42.565Z,8.25
2018-12-07T11:48:15.125Z,9.20
2018-12-07T11:50:47.753Z,7.35
2018-12-07T11:53:20.349Z,7.03
2018-12-07T11:55:52.963Z,6.28
2018-12-07T11:58:26.004Z,6.62
2018-12-07T12:00:58.532Z,6.37
2018-12-07T12:03:32.254Z,4.45
2018-12-07T12:06:04.946Z,5.28
2018-12-07T12:08:37.534Z,5.25
2018-12-07T12:11:12.264Z,4.58
2018-12-07T12:13:44.896Z,4.70
2018-12-07T12:16:18.680Z,4.83
2018-12-07T12:18:51.296Z,4.95
2018-12-07T12:21:24.059Z,5.78
2018-12-07T12:23:56.676Z,4.10
2018-12-07T12:26:29.555Z,7.45
2018-12-07T12:29:02.311Z,4.22
2018-12-07T12:31:34.961Z,3.72
2018-12-07T12:34:08.557Z,4.10
2018-12-07T12:36:41.313Z,3.72
2018-12-07T12:39:14.112Z,4.17
2018-12-07T12:41:46.981Z,4.45
2018-12-07T12:44:19.867Z,3.90
2018-12-07T12:46:52.471Z,3.92
2018-12-07T12:49:27.127Z,3.30
2018-12-07T12:51:59.727Z,4.42
2018-12-07T12:54:32.464Z,3.83
2018-12-07T12:57:05.033Z,6.75
2018-12-07T12:59:37.737Z,3.40
2018-12-07T13:02:10.323Z,4.22
2018-12-07T13:04:42.910Z,3.87
2018-12-07T13:07:16.181Z,2.98
2018-12-07T13:09:48.888Z,3.20
2018-12-07T13:12:21.396Z,2.72
2018-12-07T13:14:54.041Z,2.80
2018-12-07T13:17:26.672Z,3.05
2018-12-07T13:19:59.313Z,5.33
2018-12-07T13:22:32.026Z,3.00
2018-12-07T13:25:05.979Z,1.95
2018-12-07T13:27:38.576Z,6.53
2018-12-07T13:30:11.288Z,2.17
2018-12-07T13:32:44.041Z,1.85
2018-12-07T13:35:16.686Z,1.87
2018-12-07T13:37:49.252Z,1.65
2018-12-07T13:40:21.856Z,1.80
2018-12-07T13:42:54.790Z,2.35
2018-12-07T13:45:27.608Z,1.37
2018-12-07T13:48:01.563Z,1.55
2018-12-07T13:50:41.117Z,1.80
2018-12-07T13:53:15.916Z,1.60
2018-12-07T13:55:48.733Z,2.15
2018-12-07T13:58:21.600Z,1.70
2018-12-07T14:00:54.286Z,1.42
2018-12-07T14:03:27.067Z,1.82
2018-12-07T14:06:00.267Z,2.25
2018-12-07T14:08:33.001Z,1.70
2018-12-07T14:11:06.637Z,1.42
2018-12-07T14:13:39.597Z,1.35
2018-12-07T14:16:12.453Z,1.27
2018-12-07T14:18:45.528Z,1.32
2018-12-07T14:21:19.451Z,1.00
2018-12-07T14:23:52.117Z,1.00
2018-12-07T14:26:24.851Z,1.40
2018-12-07T14:28:57.474Z,1.17
2018-12-07T14:31:30.310Z,1.07
2018-12-07T14:34:03.177Z,1.30
2018-12-07T14:36:36.006Z,1.00
2018-12-07T14:39:08.656Z,1.07
2018-12-07T14:41:41.427Z,0.80
2018-12-07T14:44:14.193Z,1.00
2018-12-07T14:46:46.972Z,2.15
2018-12-07T14:49:19.834Z,1.67
2018-12-07T14:51:52.516Z,0.93
2018-12-07T14:54:25.260Z,1.25
2018-12-07T14:56:58.096Z,1.20
2018-12-07T14:59:30.892Z,1.82
2018-12-07T15:02:05.519Z,1.25
2018-12-07T15:04:38.379Z,2.58
2018-12-07T15:07:11.403Z,1.32
2018-12-07T15:09:44.193Z,1.60
2018-12-07T15:12:17.619Z,1.20
2018-12-07T15:14:50.417Z,1.35
2018-12-07T15:17:23.422Z,1.55
2018-12-07T15:19:56.226Z,2.10
2018-12-07T15:22:29.216Z,2.00
2018-12-07T15:25:01.963Z,2.15
2018-12-07T15:27:34.672Z,2.30
2018-12-07T15:30:08.642Z,2.70
2018-12-07T15:32:41.543Z,3.87
2018-12-07T15:35:14.560Z,4.33
2018-12-07T15:37:47.443Z,1.90
2018-12-07T15:40:20.043Z,2.40
2018-12-07T15:42:53.884Z,2.33
2018-12-07T15:45:26.769Z,3.02
2018-12-07T15:47:59.917Z,2.35
2018-12-07T15:50:32.650Z,2.65
2018-12-07T15:53:05.791Z,3.00
2018-12-07T15:55:38.714Z,1.92
2018-12-07T15:58:11.614Z,1.92
2018-12-07T16:00:45.534Z,1.37
2018-12-07T16:03:18.394Z,1.47
2018-12-07T16:05:51.254Z,1.32
2018-12-07T16:08:25.579Z,1.17
2018-12-07T16:10:58.501Z,1.37
2018-12-07T16:13:31.516Z,1.67
2018-12-07T16:16:04.488Z,3.55
2018-12-07T16:18:37.454Z,1.00
2018-12-07T16:21:10.429Z,1.32
2018-12-07T16:23:43.281Z,0.70
2018-12-07T16:26:16.234Z,0.80
2018-12-07T16:28:49.111Z,0.70
2018-12-07T16:31:22.108Z,0.88
2018-12-07T16:33:55.401Z,0.95
2018-12-07T16:36:28.208Z,0.82
2018-12-07T16:39:01.154Z,0.98
2018-12-07T16:41:36.113Z,1.27
2018-12-07T16:44:09.122Z,0.80
2018-12-07T16:46:42.034Z,0.80
2018-12-07T16:49:14.727Z,0.80
2018-12-07T16:51:47.526Z,5.25
2018-12-07T16:54:20.382Z,2.37
2018-12-07T16:56:53.056Z,0.70
2018-12-07T16:59:26.123Z,3.22
2018-12-07T17:01:59.777Z,0.82
2018-12-07T17:04:32.809Z,0.78
2018-12-07T17:07:05.540Z,1.15
2018-12-07T17:09:38.516Z,1.20
2018-12-07T17:12:11.507Z,0.85
2018-12-07T17:14:44.458Z,2.87
2018-12-07T17:17:17.269Z,0.80
2018-12-07T17:19:50.004Z,3.00
2018-12-07T17:22:22.790Z,1.47
2018-12-07T17:24:55.709Z,0.70
2018-12-07T17:27:28.332Z,0.70
2018-12-07T17:30:01.058Z,0.82
2018-12-07T17:32:34.592Z,1.30
2018-12-07T17:35:07.431Z,1.10
2018-12-07T17:37:40.205Z,0.90
2018-12-07T17:40:14.072Z,0.80
2018-12-07T17:42:47.015Z,1.20
2018-12-07T17:45:20.138Z,0.88
2018-12-07T17:47:53.051Z,1.10
2018-12-07T17:50:26.094Z,0.80
2018-12-07T17:52:58.845Z,0.72
2018-12-07T17:55:32.139Z,2.95
2018-12-07T17:58:04.959Z,1.45
2018-12-07T18:00:37.894Z,1.15
2018-12-07T18:03:10.853Z,0.80
2018-12-07T18:05:44.326Z,1.80
2018-12-07T18:08:17.321Z,0.70
2018-12-07T18:10:50.140Z,1.30
2018-12-07T18:13:23.137Z,0.88
2018-12-07T18:15:56.235Z,0.90
2018-12-07T18:18:29.071Z,0.80
2018-12-07T18:21:01.725Z,1.95
2018-12-07T18:23:34.598Z,1.10
2018-12-07T18:26:07.784Z,1.00
2018-12-07T18:28:40.790Z,0.88
2018-12-07T18:31:13.484Z,0.80
2018-12-07T18:33:46.760Z,1.00
2018-12-07T18:36:19.530Z,0.80
2018-12-07T18:38:52.255Z,1.60
2018-12-07T18:41:25.084Z,1.00
2018-12-07T18:43:58.128Z,0.93
2018-12-07T18:46:31.100Z,2.58
2018-12-07T18:49:03.985Z,1.02
2018-12-07T18:51:36.941Z,0.82
2018-12-07T18:54:09.927Z,0.80
2018-12-07T18:56:42.697Z,0.90
2018-12-07T18:59:15.499Z,0.82
2018-12-07T19:01:48.452Z,0.90
2018-12-07T19:04:21.210Z,3.65
2018-12-07T19:06:53.869Z,1.40
2018-12-07T19:09:26.644Z,1.67
2018-12-07T19:11:59.380Z,2.15
2018-12-07T19:14:33.192Z,2.30
2018-12-07T19:17:06.267Z,2.08
2018-12-07T19:19:39.051Z,0.90
2018-12-07T19:22:11.741Z,0.95
2018-12-07T19:24:44.461Z,0.70
2018-12-07T19:27:17.475Z,0.95
2018-12-07T19:29:50.679Z,1.10
2018-12-07T19:32:23.347Z,0.90
2018-12-07T19:34:56.270Z,0.98
2018-12-07T19:37:30.531Z,1.20
2018-12-07T19:40:03.765Z,1.20
2018-12-07T19:42:37.119Z,3.00
2018-12-07T19:45:10.635Z,1.12
2018-12-07T19:47:43.719Z,3.87
2018-12-07T19:50:16.548Z,1.72
2018-12-07T19:52:49.376Z,1.45
2018-12-07T19:55:22.068Z,2.45
2018-12-07T19:57:55.366Z,3.10
2018-12-07T20:00:28.366Z,2.27
2018-12-07T20:03:01.532Z,1.30
2018-12-07T20:05:34.573Z,0.93
2018-12-07T20:08:07.564Z,4.50
2018-12-07T20:10:40.474Z,1.72
2018-12-07T20:13:13.385Z,1.37
2018-12-07T20:15:46.781Z,1.47
2018-12-07T20:18:19.941Z,2.05
2018-12-07T20:20:52.665Z,1.85
2018-12-07T20:23:25.384Z,4.12
2018-12-07T20:25:58.917Z,1.52
2018-12-07T20:28:31.957Z,1.47
2018-12-07T20:31:05.289Z,1.40
2018-12-07T20:33:38.159Z,5.58
2018-12-07T20:36:10.982Z,2.60
2018-12-07T20:38:43.816Z,0.88
2018-12-07T20:41:16.892Z,8.50
2018-12-07T20:43:50.153Z,3.15
2018-12-07T20:46:24.116Z,3.15
2018-12-07T20:48:57.106Z,1.52
2018-12-07T20:51:29.965Z,3.87
2018-12-07T20:54:02.736Z,6.28
2018-12-07T20:56:36.381Z,2.15
2018-12-07T20:59:09.159Z,3.42
2018-12-07T21:01:42.065Z,6.47
2018-12-07T21:04:33.537Z,4.22
2018-12-07T21:08:19.506Z,3.75
2018-12-07T21:11:09.220Z,3.15
2018-12-07T21:14:53.189Z,2.00
2018-12-07T21:17:31.698Z,3.50
2018-12-07T21:20:23.588Z,3.02
2018-12-07T21:22:56.465Z,2.62
2018-12-07T21:25:29.563Z,10.00
2018-12-07T21:28:02.469Z,7.53
2018-12-07T21:30:58.667Z,2.62
2018-12-07T21:34:42.410Z,2.47
2018-12-07T21:37:15.524Z,5.62
2018-12-07T21:39:56.479Z,1.67
2018-12-07T21:42:29.495Z,2.65
2018-12-07T21:45:02.375Z,7.15
2018-12-07T21:50:57.859Z,8.63
2018-12-07T21:53:30.703Z,8.68
2018-12-07T21:56:03.758Z,3.65
2018-12-07T21:58:36.769Z,11.08
2018-12-07T22:01:09.854Z,4.08
2018-12-07T22:03:42.694Z,10.48
2018-12-07T22:06:15.650Z,3.22
2018-12-07T22:08:48.806Z,9.50
2018-12-07T22:11:21.699Z,7.87
2018-12-07T22:13:54.717Z,5.65
2018-12-07T22:16:27.337Z,9.88
2018-12-07T22:19:00.113Z,7.97
2018-12-07T22:21:33.223Z,9.43
2018-12-07T22:24:06.237Z,7.25
2018-12-07T22:26:40.422Z,8.75
2018-12-07T22:29:13.450Z,15.05
2018-12-07T22:31:46.464Z,5.45
2018-12-07T22:34:19.475Z,9.75
2018-12-07T22:36:52.382Z,8.05
2018-12-07T22:39:25.144Z,10.25
2018-12-07T22:41:58.049Z,8.03
2018-12-07T22:44:31.159Z,16.32
2018-12-07T22:47:04.165Z,17.62
2018-12-07T22:49:36.835Z,11.20
2018-12-07T22:52:09.515Z,12.78
2018-12-07T22:54:42.235Z,12.90
2018-12-07T22:57:14.961Z,15.75
2018-12-07T22:59:47.600Z,11.40
2018-12-07T23:02:20.451Z,9.23
2018-12-07T23:04:53.231Z,14.78
2018-12-07T23:08:55.462Z,13.22
2018-12-07T23:11:28.256Z,7.03
2018-12-07T23:14:00.843Z,10.43
2018-12-07T23:16:33.438Z,8.25
2018-12-07T23:19:06.065Z,13.35
2018-12-07T23:21:38.859Z,8.53
2018-12-07T23:24:11.459Z,14.90
2018-12-07T23:26:44.224Z,8.53
2018-12-07T23:29:22.314Z,9.13
2018-12-07T23:31:54.938Z,12.82
2018-12-07T23:34:27.640Z,11.08
2018-12-07T23:37:00.253Z,9.95
2018-12-07T23:39:32.906Z,9.00
2018-12-07T23:42:05.591Z,6.78
2018-12-07T23:44:38.256Z,6.60
2018-12-07T23:47:10.878Z,7.47
2018-12-07T23:49:43.506Z,13.03
2018-12-07T23:52:16.112Z,8.93
2018-12-07T23:54:48.617Z,8.13
2018-12-07T23:57:21.185Z,8.03
2018-12-07T23:59:53.716Z,9.55
